createdAt,value
2018-11-03T00:00:12.530Z,3.50
2018-11-03T00:03:16.618Z,3.40
2018-11-03T00:06:20.636Z,3.40
2018-11-03T00:09:24.611Z,3.40
2018-11-03T00:12:28.594Z,3.50
2018-11-03T00:15:32.512Z,3.60
2018-11-03T00:18:36.453Z,3.50
2018-11-03T00:21:40.440Z,3.30
2018-11-03T00:24:44.560Z,3.10
2018-11-03T00:27:48.540Z,2.90
2018-11-03T00:30:52.442Z,3.00
2018-11-03T00:33:56.459Z,3.20
2018-11-03T00:37:00.395Z,3.30
2018-11-03T00:40:04.947Z,3.30
2018-11-03T00:43:08.935Z,3.30
2018-11-03T00:46:12.941Z,3.20
2018-11-03T00:49:16.981Z,3.10
2018-11-03T00:52:20.848Z,3.10
2018-11-03T00:55:24.844Z,2.90
2018-11-03T00:58:28.723Z,2.70
2018-11-03T01:01:32.674Z,2.30
2018-11-03T01:04:37.669Z,2.30
2018-11-03T01:07:42.578Z,2.30
2018-11-03T01:10:46.543Z,2.50
2018-11-03T01:13:50.477Z,2.60
2018-11-03T01:16:54.469Z,2.70
2018-11-03T01:19:58.397Z,2.90
2018-11-03T01:23:02.355Z,2.90
2018-11-03T01:26:06.263Z,3.00
2018-11-03T01:29:10.243Z,2.80
2018-11-03T01:32:14.273Z,2.70
2018-11-03T01:35:18.411Z,2.60
2018-11-03T01:38:22.285Z,2.60
2018-11-03T01:41:26.247Z,2.50
2018-11-03T01:44:30.246Z,2.50
2018-11-03T01:47:34.429Z,2.80
2018-11-03T01:50:38.382Z,2.80
2018-11-03T01:53:42.324Z,2.90
2018-11-03T01:56:46.412Z,2.90
2018-11-03T01:59:50.426Z,2.90
2018-11-03T02:02:54.468Z,3.00
2018-11-03T02:05:58.555Z,2.90
2018-11-03T02:09:02.535Z,2.80
2018-11-03T02:12:06.628Z,2.90
2018-11-03T02:15:11.223Z,3.00
2018-11-03T02:18:15.230Z,3.00
2018-11-03T02:21:19.255Z,3.10
2018-11-03T02:24:23.139Z,3.30
2018-11-03T02:27:27.179Z,3.30
2018-11-03T02:30:31.192Z,3.40
2018-11-03T02:33:35.839Z,3.30
2018-11-03T02:36:39.840Z,3.30
2018-11-03T02:39:43.868Z,3.30
2018-11-03T02:42:47.811Z,3.00
2018-11-03T02:45:51.851Z,3.10
2018-11-03T02:48:55.806Z,3.20
2018-11-03T02:51:59.851Z,3.50
2018-11-03T02:55:03.931Z,3.50
2018-11-03T02:58:08.049Z,3.50
2018-11-03T03:01:12.050Z,3.50
2018-11-03T03:04:16.285Z,3.60
2018-11-03T03:07:20.808Z,3.50
2018-11-03T03:10:24.897Z,3.40
2018-11-03T03:13:29.002Z,3.50
2018-11-03T03:16:33.103Z,3.50
2018-11-03T03:19:36.924Z,3.50
2018-11-03T03:22:41.397Z,3.70
2018-11-03T03:25:45.512Z,3.70
2018-11-03T03:28:49.556Z,3.70
2018-11-03T03:31:53.467Z,3.70
2018-11-03T03:34:57.582Z,3.80
2018-11-03T03:38:01.583Z,3.80
2018-11-03T03:41:06.029Z,3.80
2018-11-03T03:44:10.041Z,3.80
2018-11-03T03:47:14.133Z,3.90
2018-11-03T03:50:18.168Z,3.90
2018-11-03T03:53:22.292Z,4.00
2018-11-03T03:56:26.282Z,3.90
2018-11-03T03:59:30.218Z,3.70
2018-11-03T04:02:34.291Z,3.70
2018-11-03T04:05:38.446Z,3.70
2018-11-03T04:08:42.548Z,3.70
2018-11-03T04:11:46.632Z,3.70
2018-11-03T04:14:50.681Z,3.80
2018-11-03T04:17:54.762Z,3.80
2018-11-03T04:20:58.750Z,3.90
2018-11-03T04:24:02.749Z,3.90
2018-11-03T04:27:07.303Z,3.90
2018-11-03T04:30:14.083Z,3.80
2018-11-03T04:33:18.108Z,3.80
2018-11-03T04:36:21.980Z,3.80
2018-11-03T04:39:26.021Z,3.80
2018-11-03T04:42:30.117Z,3.80
2018-11-03T04:45:34.076Z,3.80
2018-11-03T04:48:38.409Z,3.80
2018-11-03T04:51:42.272Z,3.70
2018-11-03T04:54:46.256Z,3.70
2018-11-03T04:57:50.203Z,3.80
2018-11-03T05:00:54.215Z,4.00
2018-11-03T05:03:58.202Z,4.00
2018-11-03T05:07:02.130Z,3.80
2018-11-03T05:10:07.507Z,3.80
2018-11-03T05:13:11.558Z,3.80
2018-11-03T05:16:15.493Z,3.90
2018-11-03T05:19:19.455Z,4.10
2018-11-03T05:22:23.560Z,4.00
2018-11-03T05:25:27.585Z,3.90
2018-11-03T05:28:31.498Z,3.80
2018-11-03T05:31:35.359Z,3.80
2018-11-03T05:34:39.291Z,3.70
2018-11-03T05:37:43.268Z,3.80
2018-11-03T05:40:47.244Z,3.80
2018-11-03T05:43:51.127Z,3.80
2018-11-03T05:46:55.126Z,3.80
2018-11-03T05:49:59.039Z,3.70
2018-11-03T05:53:02.954Z,3.80
2018-11-03T05:56:06.937Z,3.80
2018-11-03T05:59:10.879Z,3.80
2018-11-03T06:02:14.824Z,3.60
2018-11-03T06:05:18.747Z,3.50
2018-11-03T06:08:22.706Z,3.50
2018-11-03T06:11:26.631Z,3.40
2018-11-03T06:14:30.549Z,3.40
2018-11-03T06:17:34.574Z,3.40
2018-11-03T06:20:38.635Z,3.50
2018-11-03T06:23:42.670Z,3.40
2018-11-03T06:26:46.464Z,3.60
2018-11-03T06:29:50.343Z,3.60
2018-11-03T06:32:54.259Z,3.60
2018-11-03T06:35:58.244Z,3.50
2018-11-03T06:39:02.276Z,3.50
2018-11-03T06:42:06.596Z,3.50
2018-11-03T06:45:11.215Z,3.30
2018-11-03T06:48:15.183Z,3.10
2018-11-03T06:51:19.143Z,3.10
2018-11-03T06:54:22.951Z,2.90
2018-11-03T06:57:27.034Z,3.00
2018-11-03T07:00:30.930Z,3.10
2018-11-03T07:03:34.905Z,3.20
2018-11-03T07:06:38.829Z,3.20
2018-11-03T07:09:42.857Z,3.20
2018-11-03T07:12:47.025Z,3.10
2018-11-03T07:15:50.785Z,3.00
2018-11-03T07:18:54.765Z,2.90
2018-11-03T07:21:58.650Z,2.90
2018-11-03T07:25:02.597Z,3.20
2018-11-03T07:28:07.171Z,3.20
2018-11-03T07:31:11.181Z,3.30
2018-11-03T07:34:15.307Z,3.30
2018-11-03T07:37:19.268Z,3.50
2018-11-03T07:40:23.184Z,3.60
2018-11-03T07:43:27.234Z,3.40
2018-11-03T07:46:31.173Z,3.40
2018-11-03T07:49:35.208Z,3.40
2018-11-03T07:52:39.277Z,3.40
2018-11-03T07:55:43.168Z,3.50
2018-11-03T07:58:47.128Z,3.80
2018-11-03T08:01:51.114Z,4.00
2018-11-03T08:05:01.911Z,4.10
2018-11-03T08:08:06.381Z,4.20
2018-11-03T08:11:10.336Z,4.30
2018-11-03T08:14:14.315Z,4.40
2018-11-03T08:17:18.263Z,4.50
2018-11-03T08:20:22.233Z,4.70
2018-11-03T08:23:26.095Z,4.80
2018-11-03T08:26:29.953Z,4.70
2018-11-03T08:29:33.949Z,4.80
2018-11-03T08:32:37.897Z,5.10
2018-11-03T08:35:41.756Z,5.20
2018-11-03T08:38:45.612Z,5.40
2018-11-03T08:41:49.578Z,5.50
2018-11-03T08:44:53.571Z,5.60
2018-11-03T08:47:57.572Z,5.80
2018-11-03T08:51:01.570Z,5.90
2018-11-03T08:54:05.525Z,6.10
2018-11-03T08:57:09.653Z,6.20
2018-11-03T09:00:14.828Z,6.30
2018-11-03T09:03:18.651Z,6.40
2018-11-03T09:06:22.543Z,6.30
2018-11-03T09:09:26.502Z,6.50
2018-11-03T09:12:30.498Z,6.50
2018-11-03T09:15:34.583Z,6.60
2018-11-03T09:18:38.550Z,6.70
2018-11-03T09:21:42.634Z,6.80
2018-11-03T09:24:46.541Z,7.10
2018-11-03T09:27:50.467Z,7.30
2018-11-03T09:30:54.507Z,7.60
2018-11-03T09:33:58.457Z,7.70
2018-11-03T09:37:02.295Z,7.70
2018-11-03T09:40:08.166Z,7.70
2018-11-03T09:43:12.211Z,7.60
2018-11-03T09:46:15.941Z,7.50
2018-11-03T09:49:19.918Z,7.50
2018-11-03T09:52:23.811Z,7.40
2018-11-03T09:55:27.733Z,7.40
2018-11-03T09:58:31.545Z,7.60
2018-11-03T10:01:35.513Z,7.60
2018-11-03T10:04:39.373Z,7.60
2018-11-03T10:07:43.260Z,7.50
2018-11-03T10:10:47.219Z,7.70
2018-11-03T10:13:51.194Z,7.80
2018-11-03T10:16:55.120Z,7.80
2018-11-03T10:19:58.944Z,7.70
2018-11-03T10:23:03.058Z,7.80
2018-11-03T10:26:06.860Z,7.80
2018-11-03T10:29:10.825Z,7.80
2018-11-03T10:32:14.698Z,7.80
2018-11-03T10:35:18.498Z,7.80
2018-11-03T10:38:22.616Z,8.00
2018-11-03T10:41:26.543Z,8.00
2018-11-03T10:44:30.562Z,8.10
2018-11-03T10:47:34.423Z,8.20
2018-11-03T10:50:38.258Z,8.30
2018-11-03T10:53:42.283Z,8.30
2018-11-03T10:56:46.295Z,8.40
2018-11-03T10:59:50.173Z,8.40
2018-11-03T11:02:59.258Z,8.40
2018-11-03T11:06:07.363Z,8.50
2018-11-03T11:09:15.578Z,8.50
2018-11-03T11:12:35.842Z,8.50
2018-11-03T11:15:40.385Z,8.50
2018-11-03T11:18:44.368Z,8.80
2018-11-03T11:21:48.348Z,9.20
2018-11-03T11:24:52.347Z,9.40
2018-11-03T11:27:56.377Z,9.60
2018-11-03T11:31:00.294Z,9.60
2018-11-03T11:34:04.253Z,9.60
2018-11-03T11:37:08.164Z,9.90
2018-11-03T11:40:12.035Z,10.10
2018-11-03T11:43:16.324Z,9.90
2018-11-03T11:46:19.998Z,9.70
2018-11-03T11:49:23.959Z,9.60
2018-11-03T11:52:27.914Z,9.70
2018-11-03T11:55:31.909Z,9.80
2018-11-03T11:58:35.788Z,10.00
2018-11-03T12:01:39.758Z,10.10
2018-11-03T12:04:43.626Z,10.40
2018-11-03T12:07:47.630Z,10.70
2018-11-03T12:10:51.440Z,10.70
2018-11-03T12:13:55.390Z,10.80
2018-11-03T12:16:59.261Z,11.10
2018-11-03T12:20:03.209Z,11.20
2018-11-03T12:23:07.202Z,11.40
2018-11-03T12:26:11.128Z,11.50
2018-11-03T12:29:15.170Z,11.60
2018-11-03T12:32:19.084Z,11.70
2018-11-03T12:35:23.042Z,11.80
2018-11-03T12:38:26.884Z,11.70
2018-11-03T12:41:31.055Z,12.00
2018-11-03T12:44:35.096Z,12.20
2018-11-03T12:47:39.016Z,12.30
2018-11-03T12:50:42.853Z,12.40
2018-11-03T12:53:46.857Z,12.40
2018-11-03T12:56:50.774Z,12.60
2018-11-03T12:59:54.776Z,12.80
2018-11-03T13:02:58.697Z,12.90
2018-11-03T13:06:02.697Z,13.00
2018-11-03T13:09:09.841Z,13.10
2018-11-03T13:12:13.739Z,13.10
2018-11-03T13:15:17.600Z,13.30
2018-11-03T13:18:21.542Z,13.20
2018-11-03T13:21:25.426Z,13.20
2018-11-03T13:24:29.348Z,13.30
2018-11-03T13:27:33.312Z,13.30
2018-11-03T13:30:37.284Z,13.50
2018-11-03T13:33:41.201Z,13.50
2018-11-03T13:36:45.194Z,13.60
2018-11-03T13:39:49.217Z,13.40
2018-11-03T13:42:53.215Z,13.30
2018-11-03T13:45:57.175Z,13.20
2018-11-03T13:49:01.812Z,13.10
2018-11-03T13:52:05.667Z,13.10
2018-11-03T13:55:10.957Z,13.10
2018-11-03T13:58:14.931Z,13.00
2018-11-03T14:01:18.807Z,12.90
2018-11-03T14:04:22.866Z,12.80
2018-11-03T14:07:26.795Z,12.80
2018-11-03T14:10:30.853Z,12.70
2018-11-03T14:13:34.707Z,12.70
2018-11-03T14:16:38.843Z,12.70
2018-11-03T14:19:42.847Z,12.60
2018-11-03T14:22:46.993Z,12.40
2018-11-03T14:25:50.980Z,12.30
2018-11-03T14:28:55.005Z,12.20
2018-11-03T14:31:58.887Z,12.00
2018-11-03T14:35:02.847Z,11.80
2018-11-03T14:38:06.777Z,11.80
2018-11-03T14:41:10.645Z,11.60
2018-11-03T14:44:14.654Z,11.40
2018-11-03T14:47:18.660Z,11.30
2018-11-03T14:50:26.709Z,11.30
2018-11-03T14:53:30.743Z,11.10
2018-11-03T14:56:34.680Z,10.90
2018-11-03T14:59:38.554Z,10.70
2018-11-03T15:02:42.479Z,10.80
2018-11-03T15:05:46.425Z,10.70
2018-11-03T15:08:50.411Z,10.70
2018-11-03T15:11:54.382Z,10.40
2018-11-03T15:14:58.324Z,10.10
2018-11-03T15:18:02.199Z,10.00
2018-11-03T15:21:06.067Z,9.60
2018-11-03T15:24:10.195Z,9.40
2018-11-03T15:27:14.276Z,9.00
2018-11-03T15:30:18.122Z,8.90
2018-11-03T15:33:22.074Z,8.50
2018-11-03T15:36:26.003Z,8.50
2018-11-03T15:39:30.073Z,8.20
2018-11-03T15:42:34.000Z,8.00
2018-11-03T15:45:37.936Z,8.00
2018-11-03T15:48:41.793Z,7.80
2018-11-03T15:51:45.754Z,7.80
2018-11-03T15:54:49.527Z,7.80
2018-11-03T15:57:53.490Z,7.70
2018-11-03T16:00:57.310Z,7.50
2018-11-03T16:04:01.220Z,7.40
2018-11-03T16:07:05.131Z,7.20
2018-11-03T16:10:09.952Z,7.10
2018-11-03T16:13:13.987Z,7.00
2018-11-03T16:16:17.838Z,6.80
2018-11-03T16:19:22.034Z,6.70
2018-11-03T16:22:25.873Z,6.60
2018-11-03T16:25:29.858Z,6.40
2018-11-03T16:28:34.026Z,6.30
2018-11-03T16:31:38.018Z,6.30
2018-11-03T16:34:41.829Z,6.20
2018-11-03T16:37:45.734Z,6.10
2018-11-03T16:40:49.724Z,6.10
2018-11-03T16:43:53.712Z,6.00
2018-11-03T16:46:57.673Z,5.90
2018-11-03T16:50:01.518Z,5.70
2018-11-03T16:53:05.671Z,5.30
2018-11-03T16:56:09.642Z,5.10
2018-11-03T16:59:13.629Z,5.00
2018-11-03T17:02:17.624Z,4.90
2018-11-03T17:05:21.551Z,5.00
2018-11-03T17:08:25.525Z,4.90
2018-11-03T17:11:29.443Z,5.00
2018-11-03T17:14:33.458Z,5.00
2018-11-03T17:17:37.722Z,5.10
2018-11-03T17:20:41.695Z,5.00
2018-11-03T17:23:45.548Z,5.00
2018-11-03T17:26:49.492Z,4.90
2018-11-03T17:29:53.504Z,4.80
2018-11-03T17:32:57.489Z,4.70
2018-11-03T17:36:01.366Z,4.60
2018-11-03T17:39:08.265Z,4.60
2018-11-03T17:42:12.257Z,4.60
2018-11-03T17:45:16.196Z,4.40
2018-11-03T17:48:20.125Z,4.50
2018-11-03T17:51:24.086Z,4.40
2018-11-03T17:54:28.103Z,4.40
2018-11-03T17:57:31.990Z,4.20
2018-11-03T18:00:36.009Z,4.10
2018-11-03T18:03:39.890Z,4.20
2018-11-03T18:06:43.774Z,4.10
2018-11-03T18:09:47.715Z,3.90
2018-11-03T18:12:51.627Z,3.70
2018-11-03T18:15:55.584Z,3.60
2018-11-03T18:18:59.912Z,3.60
2018-11-03T18:22:03.823Z,3.70
2018-11-03T18:25:08.233Z,3.70
2018-11-03T18:28:12.145Z,3.70
2018-11-03T18:31:16.067Z,3.50
2018-11-03T18:34:20.112Z,3.30
2018-11-03T18:37:24.152Z,3.30
2018-11-03T18:40:28.022Z,3.20
2018-11-03T18:43:31.924Z,3.20
2018-11-03T18:46:35.987Z,3.20
2018-11-03T18:49:39.871Z,3.20
2018-11-03T18:52:43.737Z,3.20
2018-11-03T18:55:47.619Z,3.10
2018-11-03T18:58:51.604Z,3.00
2018-11-03T19:01:55.410Z,2.70
2018-11-03T19:04:59.293Z,2.70
2018-11-03T19:08:03.661Z,2.70
2018-11-03T19:11:08.465Z,2.80
2018-11-03T19:14:12.547Z,2.80
2018-11-03T19:17:16.672Z,2.80
2018-11-03T19:20:20.936Z,2.80
2018-11-03T19:23:25.082Z,2.70
2018-11-03T19:26:29.193Z,2.70
2018-11-03T19:29:33.382Z,2.70
2018-11-03T19:32:37.517Z,2.80
2018-11-03T19:35:41.684Z,2.70
2018-11-03T19:38:45.900Z,2.70
2018-11-03T19:41:49.977Z,2.70
2018-11-03T19:44:54.119Z,2.60
2018-11-03T19:47:58.274Z,2.50
2018-11-03T19:51:02.294Z,2.40
2018-11-03T19:54:06.476Z,2.50
2018-11-03T19:57:10.572Z,2.40
2018-11-03T20:00:15.747Z,2.40
2018-11-03T20:03:19.764Z,2.40
2018-11-03T20:06:23.863Z,2.40
2018-11-03T20:09:27.791Z,2.30
2018-11-03T20:12:31.767Z,2.20
2018-11-03T20:15:35.606Z,2.20
2018-11-03T20:18:39.563Z,2.10
2018-11-03T20:21:43.500Z,2.10
2018-11-03T20:24:47.517Z,2.10
2018-11-03T20:27:51.528Z,2.10
2018-11-03T20:30:55.626Z,2.20
2018-11-03T20:33:59.579Z,2.10
2018-11-03T20:37:03.682Z,2.00
2018-11-03T20:40:09.463Z,1.90
2018-11-03T20:43:13.705Z,1.80
2018-11-03T20:46:18.030Z,1.80
2018-11-03T20:49:22.281Z,1.90
2018-11-03T20:52:26.380Z,1.90
2018-11-03T20:55:30.325Z,2.00
2018-11-03T20:58:34.663Z,2.10
2018-11-03T21:01:38.629Z,2.20
2018-11-03T21:04:42.777Z,2.20
2018-11-03T21:07:46.782Z,2.20
2018-11-03T21:10:50.735Z,2.30
2018-11-03T21:13:54.628Z,2.30
2018-11-03T21:16:58.663Z,2.20
2018-11-03T21:20:02.693Z,2.10
2018-11-03T21:23:07.352Z,2.10
2018-11-03T21:26:11.316Z,2.10
2018-11-03T21:29:15.249Z,2.10
2018-11-03T21:32:19.148Z,2.20
2018-11-03T21:35:23.139Z,2.20
2018-11-03T21:38:27.264Z,2.20
2018-11-03T21:41:31.261Z,2.30
2018-11-03T21:44:35.130Z,2.30
2018-11-03T21:47:39.649Z,2.30
2018-11-03T21:50:43.526Z,2.40
2018-11-03T21:53:47.454Z,2.40
2018-11-03T21:56:51.394Z,2.40
2018-11-03T21:59:55.408Z,2.40
2018-11-03T22:02:59.393Z,2.50
2018-11-03T22:06:03.389Z,2.40
2018-11-03T22:09:10.349Z,2.40
2018-11-03T22:12:14.184Z,2.30
2018-11-03T22:15:18.019Z,2.20
2018-11-03T22:18:21.934Z,2.10
2018-11-03T22:21:25.846Z,2.20
2018-11-03T22:24:29.783Z,2.10
2018-11-03T22:27:33.852Z,2.20
2018-11-03T22:30:37.792Z,2.20
2018-11-03T22:33:41.649Z,2.20
2018-11-03T22:36:45.598Z,2.10
2018-11-03T22:39:49.511Z,2.10
2018-11-03T22:42:53.432Z,2.10
2018-11-03T22:45:57.512Z,2.10
2018-11-03T22:49:01.865Z,1.90
2018-11-03T22:52:07.247Z,2.00
2018-11-03T22:55:11.179Z,1.90
2018-11-03T22:58:14.986Z,1.90
2018-11-03T23:01:18.857Z,1.80
2018-11-03T23:04:22.697Z,1.70
2018-11-03T23:07:26.608Z,1.80
2018-11-03T23:10:30.600Z,1.80
2018-11-03T23:13:34.596Z,1.90
2018-11-03T23:16:38.571Z,2.00
2018-11-03T23:19:46.813Z,1.90
2018-11-03T23:22:50.970Z,1.90
2018-11-03T23:25:54.857Z,1.90
2018-11-03T23:28:58.842Z,1.80
2018-11-03T23:32:02.841Z,1.60
2018-11-03T23:35:08.882Z,1.60
2018-11-03T23:38:12.880Z,1.50
2018-11-03T23:41:16.895Z,1.40
2018-11-03T23:44:21.027Z,1.50
2018-11-03T23:47:25.119Z,1.60
2018-11-03T23:50:29.167Z,1.70
2018-11-03T23:53:33.108Z,1.70
2018-11-03T23:56:37.269Z,1.80
2018-11-03T23:59:41.526Z,1.80
